Kjeller Airport


Codes: ENKJ/
Name: Kjeller Airport
City: Kjeller
Country: Norway
Elevation: 354 ft.
Website:
Wikipedia:

Photos at Kjeller Airport


   Photos courtesy of SpottingLog. You can add your own sightings and photos by signing up for a free trial today.



No photos found.

Weather at Kjeller Airport


Time (UTC)DescriptionTempratureWindCloud coverageVisibilityPressureHumidity
15-Apr-2024 18:00Scattered Clouds10°C7 mph, NE32%10000m1002hPa42%
15-Apr-2024 21:00Scattered Clouds7°C4 mph, NE45%10000m1002hPa58%
16-Apr-2024 00:00Broken Clouds2°C4 mph, NE65%10000m1002hPa77%
16-Apr-2024 03:00Overcast Clouds1°C4 mph, N93%10000m1003hPa84%
16-Apr-2024 06:00Broken Clouds2°C7 mph, N75%10000m1003hPa72%
16-Apr-2024 09:00Few Clouds6°C9 mph, NE11%10000m1004hPa51%
16-Apr-2024 12:00Broken Clouds7°C9 mph, NE51%10000m1004hPa46%
16-Apr-2024 15:00Overcast Clouds7°C9 mph, NE100%10000m1004hPa47%
16-Apr-2024 18:00Broken Clouds5°C7 mph, NE77%10000m1006hPa59%
16-Apr-2024 21:00Few Clouds2°C4 mph, N11%10000m1007hPa76%
17-Apr-2024 00:00Few Clouds1°C2 mph, N14%10000m1008hPa76%
17-Apr-2024 03:00Few Clouds0°C4 mph, N21%10000m1009hPa79%
17-Apr-2024 06:00Few Clouds3°C7 mph, NE19%10000m1010hPa59%
17-Apr-2024 09:00Broken Clouds6°C9 mph, NE58%10000m1011hPa40%
17-Apr-2024 12:00Broken Clouds8°C7 mph, NE81%10000m1011hPa34%
17-Apr-2024 15:00Overcast Clouds8°C7 mph, N100%10000m1011hPa34%
17-Apr-2024 18:00Overcast Clouds5°C4 mph, NE90%10000m1012hPa46%
17-Apr-2024 21:00Clear Sky2°C4 mph, N5%10000m1014hPa67%
18-Apr-2024 00:00Clear Sky0°C4 mph, N3%10000m1016hPa72%
18-Apr-2024 03:00Clear Sky-0°C2 mph, N0%10000m1016hPa74%
18-Apr-2024 06:00Clear Sky2°C2 mph, NE0%10000m1018hPa63%
18-Apr-2024 09:00Clear Sky7°C2 mph, E4%10000m1017hPa46%
18-Apr-2024 12:00Few Clouds9°C0 mph, SW19%10000m1016hPa34%
18-Apr-2024 15:00Overcast Clouds9°C4 mph, SW100%10000m1014hPa34%
18-Apr-2024 18:00Overcast Clouds6°C7 mph, S99%10000m1014hPa52%
18-Apr-2024 21:00Overcast Clouds3°C7 mph, S95%10000m1013hPa71%
19-Apr-2024 00:00Light Snow2°C4 mph, SE97%2686m1011hPa95%
19-Apr-2024 03:00Light Snow2°C7 mph, SE100%10000m1010hPa79%
19-Apr-2024 06:00Overcast Clouds2°C7 mph, SE100%10000m1009hPa68%
19-Apr-2024 09:00Light Snow4°C7 mph, SE100%10000m1009hPa75%
19-Apr-2024 12:00Light Rain5°C7 mph, S100%10000m1008hPa63%
19-Apr-2024 15:00Light Rain5°C4 mph, SW100%6265m1008hPa78%
19-Apr-2024 18:00Overcast Clouds4°C2 mph, SW98%10000m1008hPa80%
19-Apr-2024 21:00Overcast Clouds2°C2 mph, SW89%10000m1009hPa90%
20-Apr-2024 00:00Overcast Clouds2°C2 mph, SW90%10000m1009hPa94%
20-Apr-2024 03:00Overcast Clouds2°C2 mph, SW100%2536m1009hPa98%
20-Apr-2024 06:00Overcast Clouds3°C2 mph, W100%10000m1010hPa84%
20-Apr-2024 09:00Overcast Clouds5°C2 mph, NE100%10000m1011hPa72%
20-Apr-2024 12:00Overcast Clouds6°C2 mph, E100%10000m1012hPa66%
20-Apr-2024 15:00Overcast Clouds7°C2 mph, S100%10000m1012hPa59%